Amparo, Brazil
Current Conditions -  °F | °C
As of 12:00 PM on Friday 24 Oct 2014 (Local Time) from SBLS Reporting Station
Clear Clear  
Wind Chill: 82°   Ceiling: Unl
Heat Index: 82°   Visibility: 6mi
Dew Point: 55°   Wind: 6mph
Humidity: 39%   Direction: 20°NNE
Pressure: 30.09"   Gusts: NA
Location:  19.7°S, 43.47°W
Report Text: SBLS 241400Z 02005KT CAVOK 28/13 Q1019
Loading
Personal Weather Stations






























Interactive Weather Map
Tropical Storm Tracking
New forecast layout! Learn more

10-Day Weather Forecast

Advertisements
Track Severe Weather on mobile